createdAt,value
2017-11-17T00:00:03.384Z,98286.37
2017-11-17T00:00:35.149Z,98285.91
2017-11-17T00:01:06.804Z,98285.00
2017-11-17T00:01:38.442Z,98289.25
2017-11-17T00:02:10.107Z,98281.16
2017-11-17T00:02:41.731Z,98287.16
2017-11-17T00:03:13.376Z,98287.17
2017-11-17T00:03:45.008Z,98290.53
2017-11-17T00:04:16.635Z,98285.42
2017-11-17T00:04:48.283Z,98285.47
2017-11-17T00:05:19.926Z,98286.78
2017-11-17T00:05:51.874Z,98286.73
2017-11-17T00:06:23.525Z,98292.27
2017-11-17T00:06:55.389Z,98292.23
2017-11-17T00:07:27.112Z,98291.39
2017-11-17T00:07:58.739Z,98291.84
2017-11-17T00:08:30.388Z,98289.26
2017-11-17T00:09:02.030Z,98293.08
2017-11-17T00:09:34.031Z,98287.17
2017-11-17T00:10:05.659Z,98288.88
2017-11-17T00:10:37.283Z,98285.03
2017-11-17T00:11:08.907Z,98285.89
2017-11-17T00:11:40.531Z,98284.61
2017-11-17T00:12:12.192Z,98283.28
2017-11-17T00:12:43.860Z,98282.86
2017-11-17T00:13:15.487Z,98283.28
2017-11-17T00:13:47.121Z,98290.11
2017-11-17T00:14:18.756Z,98292.61
2017-11-17T00:14:50.397Z,98285.80
2017-11-17T00:15:22.042Z,98284.56
2017-11-17T00:15:53.683Z,98283.28
2017-11-17T00:16:25.326Z,98282.00
2017-11-17T00:16:57.024Z,98284.14
2017-11-17T00:17:28.651Z,98280.73
2017-11-17T00:18:00.314Z,98275.19
2017-11-17T00:18:31.948Z,98274.34
2017-11-17T00:19:03.584Z,98277.33
2017-11-17T00:19:35.215Z,98278.56
2017-11-17T00:20:06.847Z,98270.52
2017-11-17T00:20:38.479Z,98279.03
2017-11-17T00:21:10.111Z,98273.48
2017-11-17T00:21:41.751Z,98273.86
2017-11-17T00:22:13.619Z,98277.70
2017-11-17T00:22:45.244Z,98276.91
2017-11-17T00:23:16.979Z,98268.39
2017-11-17T00:23:48.621Z,98272.27
2017-11-17T00:24:20.259Z,98281.20
2017-11-17T00:24:51.904Z,98277.81
2017-11-17T00:25:23.542Z,98275.72
2017-11-17T00:25:55.186Z,98280.73
2017-11-17T00:26:26.831Z,98278.23
2017-11-17T00:26:58.468Z,98279.08
2017-11-17T00:27:30.111Z,98284.14
2017-11-17T00:28:01.755Z,98282.05
2017-11-17T00:28:33.420Z,98280.73
2017-11-17T00:29:05.047Z,98277.38
2017-11-17T00:29:36.681Z,98278.23
2017-11-17T00:30:08.324Z,98279.93
2017-11-17T00:30:39.965Z,98284.61
2017-11-17T00:31:11.607Z,98277.80
2017-11-17T00:31:43.249Z,98282.44
2017-11-17T00:32:14.915Z,98289.67
2017-11-17T00:32:46.539Z,98281.21
2017-11-17T00:33:18.176Z,98280.35
2017-11-17T00:33:49.851Z,98280.35
2017-11-17T00:34:21.476Z,98280.40
2017-11-17T00:34:53.407Z,98276.11
2017-11-17T00:35:25.051Z,98281.58
2017-11-17T00:35:56.689Z,98278.13
2017-11-17T00:36:28.330Z,98277.70
2017-11-17T00:36:59.975Z,98275.61
2017-11-17T00:37:31.617Z,98278.17
2017-11-17T00:38:03.258Z,98275.62
2017-11-17T00:38:34.901Z,98283.71
2017-11-17T00:39:06.598Z,98282.01
2017-11-17T00:39:38.468Z,98276.05
2017-11-17T00:40:10.096Z,98281.16
2017-11-17T00:40:41.723Z,98278.19
2017-11-17T00:41:13.359Z,98279.50
2017-11-17T00:41:44.984Z,98277.42
2017-11-17T00:42:16.608Z,98275.30
2017-11-17T00:42:48.343Z,98271.45
2017-11-17T00:43:19.981Z,98280.77
2017-11-17T00:43:51.628Z,98274.39
2017-11-17T00:44:23.295Z,98272.22
2017-11-17T00:44:54.925Z,98279.94
2017-11-17T00:45:26.555Z,98271.41
2017-11-17T00:45:58.193Z,98275.20
2017-11-17T00:46:29.837Z,98275.20
2017-11-17T00:47:01.478Z,98272.27
2017-11-17T00:47:33.120Z,98272.27
2017-11-17T00:48:05.069Z,98263.80
2017-11-17T00:48:36.709Z,98276.06
2017-11-17T00:49:08.352Z,98269.23
2017-11-17T00:49:40.020Z,98267.48
2017-11-17T00:50:11.642Z,98260.72
2017-11-17T00:50:43.280Z,98262.84
2017-11-17T00:51:14.921Z,98262.41
2017-11-17T00:51:46.559Z,98268.38
2017-11-17T00:52:18.202Z,98261.63
2017-11-17T00:52:49.844Z,98262.00
2017-11-17T00:53:21.487Z,98269.67
2017-11-17T00:53:53.129Z,98265.02
2017-11-17T00:54:24.770Z,98262.84
2017-11-17T00:54:56.440Z,98258.59
2017-11-17T00:55:28.063Z,98260.24
2017-11-17T00:55:59.698Z,98256.45
2017-11-17T00:56:31.337Z,98259.06
2017-11-17T00:57:02.983Z,98249.75
2017-11-17T00:57:34.621Z,98254.85
2017-11-17T00:58:06.265Z,98253.11
2017-11-17T00:58:37.904Z,98260.77
2017-11-17T00:59:09.549Z,98268.05
2017-11-17T00:59:41.188Z,98262.52
2017-11-17T01:00:12.833Z,98260.81
2017-11-17T01:00:44.472Z,98263.37
2017-11-17T01:01:16.116Z,98265.02
2017-11-17T01:01:47.758Z,98265.07
2017-11-17T01:02:19.400Z,98269.72
2017-11-17T01:02:51.044Z,98268.87
2017-11-17T01:03:22.685Z,98272.73
2017-11-17T01:03:54.572Z,98273.13
2017-11-17T01:04:26.200Z,98276.56
2017-11-17T01:04:57.824Z,98270.57
2017-11-17T01:05:29.492Z,98264.66
2017-11-17T01:06:01.116Z,98271.94
2017-11-17T01:06:32.747Z,98269.77
2017-11-17T01:07:04.485Z,98268.50
2017-11-17T01:07:36.127Z,98270.62
2017-11-17T01:08:07.884Z,98272.75
2017-11-17T01:08:39.512Z,98274.39
2017-11-17T01:09:11.167Z,98273.55
2017-11-17T01:09:43.002Z,98272.31
2017-11-17T01:10:14.654Z,98271.42
2017-11-17T01:10:46.327Z,98266.31
2017-11-17T01:11:17.952Z,98266.73
2017-11-17T01:11:49.579Z,98263.32
2017-11-17T01:12:21.213Z,98266.69
2017-11-17T01:12:52.853Z,98262.85
2017-11-17T01:13:24.492Z,98268.39
2017-11-17T01:13:56.140Z,98266.69
2017-11-17T01:14:27.776Z,98268.43
2017-11-17T01:14:59.420Z,98264.56
2017-11-17T01:15:31.062Z,98265.45
2017-11-17T01:16:02.731Z,98266.27
2017-11-17T01:16:34.359Z,98268.81
2017-11-17T01:17:06.233Z,98264.55
2017-11-17T01:17:37.859Z,98266.67
2017-11-17T01:18:09.494Z,98268.81
2017-11-17T01:18:41.123Z,98263.80
2017-11-17T01:19:12.864Z,98264.22
2017-11-17T01:19:44.504Z,98263.00
2017-11-17T01:20:16.144Z,98261.72
2017-11-17T01:20:47.776Z,98262.10
2017-11-17T01:21:19.449Z,98265.50
2017-11-17T01:21:51.084Z,98262.95
2017-11-17T01:22:24.883Z,98264.70
2017-11-17T01:22:56.563Z,98260.83
2017-11-17T01:23:28.199Z,98263.37
2017-11-17T01:23:59.838Z,98260.02
2017-11-17T01:24:31.476Z,98259.16
2017-11-17T01:25:03.103Z,98260.83
2017-11-17T01:25:34.727Z,98255.72
2017-11-17T01:26:06.666Z,98258.31
2017-11-17T01:26:38.331Z,98259.98
2017-11-17T01:27:09.979Z,98258.70
2017-11-17T01:27:41.608Z,98254.06
2017-11-17T01:28:13.240Z,98255.29
2017-11-17T01:28:45.074Z,98257.04
2017-11-17T01:29:16.827Z,98262.58
2017-11-17T01:29:48.457Z,98258.74
2017-11-17T01:30:20.105Z,98259.60
2017-11-17T01:30:51.747Z,98260.02
2017-11-17T01:31:23.388Z,98256.98
2017-11-17T01:31:55.055Z,98259.55
2017-11-17T01:32:26.679Z,98257.89
2017-11-17T01:32:58.626Z,98260.92
2017-11-17T01:33:30.263Z,98262.16
2017-11-17T01:34:01.905Z,98253.63
2017-11-17T01:34:33.548Z,98259.64
2017-11-17T01:35:05.190Z,98257.46
2017-11-17T01:35:36.830Z,98265.13
2017-11-17T01:36:08.476Z,98255.33
2017-11-17T01:36:40.121Z,98255.33
2017-11-17T01:37:11.758Z,98254.49
2017-11-17T01:37:43.405Z,98255.34
2017-11-17T01:38:15.271Z,98256.20
2017-11-17T01:38:46.894Z,98257.89
2017-11-17T01:39:18.635Z,98256.25
2017-11-17T01:39:50.276Z,98254.49
2017-11-17T01:40:21.916Z,98254.92
2017-11-17T01:40:53.557Z,98251.52
2017-11-17T01:41:25.202Z,98259.22
2017-11-17T01:41:56.841Z,98257.89
2017-11-17T01:42:28.507Z,98257.84
2017-11-17T01:43:00.136Z,98256.08
2017-11-17T01:43:31.771Z,98258.17
2017-11-17T01:44:03.409Z,98263.33
2017-11-17T01:44:35.055Z,98255.66
2017-11-17T01:45:06.695Z,98257.78
2017-11-17T01:45:38.337Z,98257.37
2017-11-17T01:46:09.979Z,98258.64
2017-11-17T01:46:41.622Z,98259.11
2017-11-17T01:47:13.263Z,98255.30
2017-11-17T01:47:44.927Z,98261.67
2017-11-17T01:48:16.555Z,98257.79
2017-11-17T01:48:48.191Z,98258.59
2017-11-17T01:49:19.827Z,98256.03
2017-11-17T01:49:51.473Z,98258.17
2017-11-17T01:50:23.111Z,98258.53
2017-11-17T01:50:54.756Z,98258.95
2017-11-17T01:51:26.435Z,98258.05
2017-11-17T01:51:58.059Z,98256.35
2017-11-17T01:52:29.688Z,98258.05
2017-11-17T01:53:01.355Z,98255.92
2017-11-17T01:53:32.979Z,98255.03
2017-11-17T01:54:04.915Z,98257.58
2017-11-17T01:54:36.556Z,98253.80
2017-11-17T01:55:08.506Z,98259.34
2017-11-17T01:55:40.152Z,98255.93
2017-11-17T01:56:11.784Z,98254.64
2017-11-17T01:56:43.438Z,98252.95
2017-11-17T01:57:15.075Z,98255.98
2017-11-17T01:57:46.728Z,98262.37
2017-11-17T01:58:18.395Z,98263.59
2017-11-17T01:58:50.023Z,98256.34
2017-11-17T01:59:21.651Z,98257.63
2017-11-17T01:59:53.483Z,98258.90
2017-11-17T02:00:25.232Z,98264.44
2017-11-17T02:00:57.181Z,98261.89
2017-11-17T02:01:29.131Z,98259.38
2017-11-17T02:02:00.901Z,98261.95
2017-11-17T02:02:32.527Z,98261.94
2017-11-17T02:03:04.363Z,98258.48
2017-11-17T02:03:36.036Z,98261.47
2017-11-17T02:04:07.659Z,98260.61
2017-11-17T02:04:39.300Z,98260.19
2017-11-17T02:05:11.167Z,98258.11
2017-11-17T02:05:42.795Z,98255.98
2017-11-17T02:06:14.551Z,98260.66
2017-11-17T02:06:46.183Z,98259.75
2017-11-17T02:07:17.812Z,98258.48
2017-11-17T02:07:49.439Z,98257.25
2017-11-17T02:08:21.087Z,98252.53
2017-11-17T02:08:52.759Z,98256.41
2017-11-17T02:09:24.388Z,98251.28
2017-11-17T02:09:56.323Z,98248.30
2017-11-17T02:10:27.962Z,98244.91
2017-11-17T02:10:59.606Z,98247.41
2017-11-17T02:11:31.245Z,98246.98
2017-11-17T02:12:02.892Z,98249.97
2017-11-17T02:12:34.535Z,98248.27
2017-11-17T02:13:06.171Z,98244.80
2017-11-17T02:13:37.814Z,98251.19
2017-11-17T02:14:09.455Z,98246.08
2017-11-17T02:14:41.097Z,98244.38
2017-11-17T02:15:15.520Z,98240.10
2017-11-17T02:15:49.442Z,98242.66
2017-11-17T02:16:24.372Z,98242.24
2017-11-17T02:16:59.718Z,98245.60
2017-11-17T02:17:31.870Z,98242.66
2017-11-17T02:18:03.496Z,98246.45
2017-11-17T02:18:35.132Z,98248.58
2017-11-17T02:19:06.756Z,98246.92
2017-11-17T02:19:38.472Z,98248.63
2017-11-17T02:20:10.115Z,98243.94
2017-11-17T02:20:41.754Z,98251.18
2017-11-17T02:21:13.705Z,98247.34
2017-11-17T02:21:45.344Z,98250.34
2017-11-17T02:22:16.986Z,98248.68
2017-11-17T02:22:48.630Z,98249.91
2017-11-17T02:23:20.272Z,98247.78
2017-11-17T02:23:51.911Z,98246.50
2017-11-17T02:24:23.581Z,98246.55
2017-11-17T02:24:55.208Z,98241.02
2017-11-17T02:25:26.840Z,98247.36
2017-11-17T02:25:58.479Z,98246.98
2017-11-17T02:26:30.129Z,98246.55
2017-11-17T02:27:01.770Z,98250.77
2017-11-17T02:27:33.408Z,98258.90
2017-11-17T02:28:05.050Z,98254.66
2017-11-17T02:28:36.693Z,98248.26
2017-11-17T02:29:08.331Z,98252.94
2017-11-17T02:29:39.994Z,98249.49
2017-11-17T02:30:11.626Z,98255.49
2017-11-17T02:30:43.260Z,98248.27
2017-11-17T02:31:14.898Z,98251.23
2017-11-17T02:31:46.854Z,98256.73
2017-11-17T02:32:18.505Z,98252.98
2017-11-17T02:32:50.137Z,98256.41
2017-11-17T02:33:22.083Z,98256.41
2017-11-17T02:33:53.722Z,98256.02
2017-11-17T02:34:25.366Z,98257.27
2017-11-17T02:34:57.035Z,98254.75
2017-11-17T02:35:28.664Z,98254.27
2017-11-17T02:36:00.401Z,98258.59
2017-11-17T02:36:32.243Z,98258.11
2017-11-17T02:37:03.881Z,98254.27
2017-11-17T02:37:35.522Z,98257.63
2017-11-17T02:38:07.167Z,98254.22
2017-11-17T02:38:38.807Z,98249.95
2017-11-17T02:39:10.448Z,98247.36
2017-11-17T02:39:42.085Z,98249.10
2017-11-17T02:40:13.780Z,98251.23
2017-11-17T02:40:45.420Z,98255.08
2017-11-17T02:41:17.052Z,98257.69
2017-11-17T02:41:48.688Z,98254.70
2017-11-17T02:42:20.329Z,98253.85
2017-11-17T02:42:51.960Z,98257.31
2017-11-17T02:43:23.592Z,98259.33
2017-11-17T02:43:55.228Z,98255.92
2017-11-17T02:44:26.869Z,98264.02
2017-11-17T02:44:58.514Z,98260.23
2017-11-17T02:45:30.464Z,98258.97
2017-11-17T02:46:02.100Z,98264.08
2017-11-17T02:46:33.742Z,98266.62
2017-11-17T02:47:05.384Z,98261.13
2017-11-17T02:47:37.026Z,98264.13
2017-11-17T02:48:08.668Z,98266.25
2017-11-17T02:48:40.313Z,98262.38
2017-11-17T02:49:11.957Z,98267.91
2017-11-17T02:49:43.599Z,98271.31
2017-11-17T02:50:15.245Z,98273.01
2017-11-17T02:50:46.917Z,98264.92
2017-11-17T02:51:18.557Z,98263.69
2017-11-17T02:51:50.187Z,98265.41
2017-11-17T02:52:21.813Z,98264.98
2017-11-17T02:52:53.449Z,98263.70
2017-11-17T02:53:25.091Z,98264.59
2017-11-17T02:53:56.746Z,98263.27
2017-11-17T02:54:28.379Z,98268.39
2017-11-17T02:55:00.245Z,98269.24
2017-11-17T02:55:31.871Z,98270.52
2017-11-17T02:56:03.607Z,98267.11
2017-11-17T02:56:35.249Z,98264.50
2017-11-17T02:57:06.887Z,98269.66
2017-11-17T02:57:38.514Z,98263.27
2017-11-17T02:58:10.175Z,98259.06
2017-11-17T02:58:41.814Z,98264.13
2017-11-17T02:59:13.461Z,98265.83
2017-11-17T02:59:45.097Z,98262.00
2017-11-17T03:00:16.760Z,98263.64
2017-11-17T03:00:48.395Z,98259.88
2017-11-17T03:01:20.068Z,98261.58
2017-11-17T03:01:51.691Z,98265.41
2017-11-17T03:02:23.315Z,98267.11
2017-11-17T03:02:55.259Z,98263.75
2017-11-17T03:03:26.900Z,98262.47
2017-11-17T03:03:58.540Z,98265.02
2017-11-17T03:04:30.180Z,98262.89
2017-11-17T03:05:01.852Z,98261.15
2017-11-17T03:05:33.704Z,98266.72
2017-11-17T03:06:05.332Z,98261.99
2017-11-17T03:06:37.003Z,98261.63
2017-11-17T03:07:08.635Z,98261.67
2017-11-17T03:07:40.263Z,98256.13
2017-11-17T03:08:11.887Z,98257.88
2017-11-17T03:08:43.627Z,98259.55
2017-11-17T03:09:15.270Z,98256.99
2017-11-17T03:09:46.898Z,98262.09
2017-11-17T03:10:18.550Z,98256.09
2017-11-17T03:10:50.198Z,98261.23
2017-11-17T03:11:21.835Z,98256.52
2017-11-17T03:11:53.512Z,98261.23
2017-11-17T03:12:25.135Z,98256.09
2017-11-17T03:12:56.768Z,98259.01
2017-11-17T03:13:28.405Z,98259.86
2017-11-17T03:14:00.046Z,98259.02
2017-11-17T03:14:31.686Z,98262.42
2017-11-17T03:15:03.327Z,98258.21
2017-11-17T03:15:34.967Z,98261.20
2017-11-17T03:16:06.615Z,98260.77
2017-11-17T03:16:38.252Z,98258.17
2017-11-17T03:17:09.923Z,98255.72
2017-11-17T03:17:41.548Z,98264.61
2017-11-17T03:18:13.451Z,98262.91
2017-11-17T03:18:45.080Z,98258.22
2017-11-17T03:19:16.707Z,98261.23
2017-11-17T03:19:48.330Z,98256.52
2017-11-17T03:20:19.956Z,98259.92
2017-11-17T03:20:51.697Z,98260.77
2017-11-17T03:21:23.336Z,98255.23
2017-11-17T03:21:54.988Z,98256.50
2017-11-17T03:22:26.663Z,98261.13
2017-11-17T03:22:58.691Z,98258.11
2017-11-17T03:23:30.521Z,98260.71
2017-11-17T03:24:02.160Z,98257.25
2017-11-17T03:24:33.807Z,98257.73
2017-11-17T03:25:05.445Z,98257.79
2017-11-17T03:25:37.087Z,98256.05
2017-11-17T03:26:08.728Z,98254.75
2017-11-17T03:26:40.383Z,98253.97
2017-11-17T03:27:12.015Z,98254.34
2017-11-17T03:27:43.687Z,98255.18
2017-11-17T03:28:15.327Z,98251.77
2017-11-17T03:28:46.954Z,98255.59
2017-11-17T03:29:18.818Z,98256.88
2017-11-17T03:29:50.448Z,98260.61
2017-11-17T03:30:22.076Z,98262.80
2017-11-17T03:30:53.817Z,98261.95
2017-11-17T03:31:25.457Z,98258.06
2017-11-17T03:31:57.094Z,98263.21
2017-11-17T03:32:28.737Z,98268.31
2017-11-17T03:33:00.382Z,98258.95
2017-11-17T03:33:32.022Z,98261.45
2017-11-17T03:34:03.664Z,98263.59
2017-11-17T03:34:35.305Z,98263.60
2017-11-17T03:35:06.949Z,98269.61
2017-11-17T03:35:38.591Z,98265.34
2017-11-17T03:36:10.231Z,98271.27
2017-11-17T03:36:41.879Z,98266.09
2017-11-17T03:37:13.518Z,98267.80
2017-11-17T03:37:45.157Z,98269.08
2017-11-17T03:38:16.828Z,98266.58
2017-11-17T03:38:48.456Z,98271.27
2017-11-17T03:39:20.700Z,98269.17
2017-11-17T03:39:52.581Z,98275.95
2017-11-17T03:40:24.203Z,98273.86
2017-11-17T03:40:55.933Z,98275.14
2017-11-17T03:41:27.572Z,98272.59
2017-11-17T03:41:59.216Z,98274.71
2017-11-17T03:42:30.859Z,98276.38
2017-11-17T03:43:02.496Z,98283.13
2017-11-17T03:43:34.171Z,98278.92
2017-11-17T03:44:05.795Z,98275.52
2017-11-17T03:44:37.625Z,98278.92
2017-11-17T03:45:09.376Z,98275.52
2017-11-17T03:45:41.023Z,98275.46
2017-11-17T03:46:12.664Z,98271.69
2017-11-17T03:46:44.300Z,98273.77
2017-11-17T03:47:15.940Z,98280.95
2017-11-17T03:47:47.581Z,98278.39
2017-11-17T03:48:19.218Z,98278.01
2017-11-17T03:48:50.888Z,98280.98
2017-11-17T03:49:22.516Z,98280.58
2017-11-17T03:49:54.149Z,98278.87
2017-11-17T03:50:25.795Z,98273.28
2017-11-17T03:50:57.433Z,98277.11
2017-11-17T03:51:29.076Z,98274.98
2017-11-17T03:52:00.725Z,98269.45
2017-11-17T03:52:32.668Z,98270.30
2017-11-17T03:53:04.309Z,98267.75
2017-11-17T03:53:35.952Z,98261.83
2017-11-17T03:54:07.619Z,98264.39
2017-11-17T03:54:39.247Z,98261.95
2017-11-17T03:55:10.879Z,98270.83
2017-11-17T03:55:42.521Z,98269.98
2017-11-17T03:56:14.160Z,98278.08
2017-11-17T03:56:45.802Z,98279.31
2017-11-17T03:57:17.447Z,98281.05
2017-11-17T03:57:49.085Z,98280.16
2017-11-17T03:58:20.730Z,98282.77
2017-11-17T03:58:52.371Z,98278.55
2017-11-17T03:59:24.044Z,98277.69
2017-11-17T03:59:55.674Z,98279.41
2017-11-17T04:00:27.304Z,98277.74
2017-11-17T04:00:59.247Z,98281.52
2017-11-17T04:01:30.888Z,98280.25
2017-11-17T04:02:02.528Z,98277.64
2017-11-17T04:02:34.168Z,98286.59
2017-11-17T04:03:05.811Z,98284.08
2017-11-17T04:03:37.456Z,98280.25
2017-11-17T04:04:09.095Z,98281.53
2017-11-17T04:04:40.767Z,98284.09
2017-11-17T04:05:12.394Z,98284.52
2017-11-17T04:05:44.261Z,98286.69
2017-11-17T04:06:15.887Z,98285.41
2017-11-17T04:06:47.516Z,98284.52
2017-11-17T04:07:19.260Z,98283.66
2017-11-17T04:07:51.206Z,98284.50
2017-11-17T04:08:22.856Z,98282.81
2017-11-17T04:08:54.494Z,98284.52
2017-11-17T04:09:26.438Z,98283.70
2017-11-17T04:09:58.078Z,98282.44
2017-11-17T04:10:29.719Z,98282.91
2017-11-17T04:11:01.364Z,98280.31
2017-11-17T04:11:33.006Z,98282.43
2017-11-17T04:12:04.655Z,98285.41
2017-11-17T04:12:36.303Z,98285.41
2017-11-17T04:13:08.239Z,98275.19
2017-11-17T04:13:39.878Z,98282.39
2017-11-17T04:14:11.523Z,98289.68
2017-11-17T04:14:43.187Z,98281.20
2017-11-17T04:15:14.811Z,98286.80
2017-11-17T04:15:46.445Z,98285.52
2017-11-17T04:16:18.087Z,98284.23
2017-11-17T04:16:49.732Z,98282.53
2017-11-17T04:17:21.373Z,98283.39
2017-11-17T04:17:53.014Z,98286.80
2017-11-17T04:18:24.662Z,98282.59
2017-11-17T04:18:56.297Z,98288.59
2017-11-17T04:19:27.942Z,98282.64
2017-11-17T04:19:59.618Z,98291.20
2017-11-17T04:20:31.248Z,98283.06
2017-11-17T04:21:02.883Z,98283.48
2017-11-17T04:21:34.531Z,98278.39
2017-11-17T04:22:06.164Z,98283.50
2017-11-17T04:22:37.798Z,98283.54
2017-11-17T04:23:09.434Z,98288.66
2017-11-17T04:23:41.074Z,98281.42
2017-11-17T04:24:12.717Z,98281.84
2017-11-17T04:24:44.360Z,98284.40
2017-11-17T04:25:16.032Z,98281.89
2017-11-17T04:25:47.662Z,98280.98
2017-11-17T04:26:19.290Z,98285.25
2017-11-17T04:26:50.925Z,98286.53
2017-11-17T04:27:22.567Z,98287.42
2017-11-17T04:27:54.211Z,98286.11
2017-11-17T04:28:25.853Z,98288.66
2017-11-17T04:28:57.493Z,98285.24
2017-11-17T04:29:29.136Z,98285.66
2017-11-17T04:30:00.781Z,98282.26
2017-11-17T04:30:32.448Z,98289.93
2017-11-17T04:31:04.071Z,98289.59
2017-11-17T04:31:35.704Z,98287.86
2017-11-17T04:32:07.347Z,98289.55
2017-11-17T04:32:38.989Z,98288.28
2017-11-17T04:33:10.628Z,98287.00
2017-11-17T04:33:42.273Z,98291.27
2017-11-17T04:34:13.914Z,98294.71
2017-11-17T04:34:45.554Z,98296.41
2017-11-17T04:35:17.184Z,98294.28
2017-11-17T04:35:48.859Z,98292.98
2017-11-17T04:36:20.720Z,98292.98
2017-11-17T04:36:52.343Z,98293.87
2017-11-17T04:37:24.073Z,98296.86
2017-11-17T04:37:55.713Z,98297.29
2017-11-17T04:38:27.354Z,98293.45
2017-11-17T04:38:58.984Z,98300.70
2017-11-17T04:39:30.642Z,98300.27
2017-11-17T04:40:02.283Z,98296.44
2017-11-17T04:40:33.919Z,98300.69
2017-11-17T04:41:05.592Z,98299.84
2017-11-17T04:41:37.216Z,98300.64
2017-11-17T04:42:08.851Z,98298.93
2017-11-17T04:42:40.496Z,98300.24
2017-11-17T04:43:12.136Z,98297.67
2017-11-17T04:43:43.777Z,98298.09
2017-11-17T04:44:15.419Z,98298.12
2017-11-17T04:44:47.060Z,98301.47
2017-11-17T04:45:18.699Z,98297.59
2017-11-17T04:45:50.344Z,98297.98
2017-11-17T04:46:22.010Z,98303.50
2017-11-17T04:46:53.635Z,98301.81
2017-11-17T04:47:25.472Z,98305.25
2017-11-17T04:47:57.219Z,98303.98
2017-11-17T04:48:28.860Z,98308.28
2017-11-17T04:49:00.502Z,98301.84
2017-11-17T04:49:32.128Z,98300.52
2017-11-17T04:50:03.784Z,98305.20
2017-11-17T04:50:35.433Z,98303.03
2017-11-17T04:51:07.066Z,98305.16
2017-11-17T04:51:38.719Z,98304.69
2017-11-17T04:52:10.624Z,98307.72
2017-11-17T04:52:42.252Z,98302.61
2017-11-17T04:53:13.894Z,98302.60
2017-11-17T04:53:45.539Z,98308.13
2017-11-17T04:54:17.171Z,98307.29
2017-11-17T04:54:48.799Z,98303.88
2017-11-17T04:55:20.427Z,98308.98
2017-11-17T04:55:52.155Z,98309.37
2017-11-17T04:56:23.794Z,98303.41
2017-11-17T04:56:55.464Z,98301.28
2017-11-17T04:57:27.088Z,98306.80
2017-11-17T04:57:58.723Z,98308.94
2017-11-17T04:58:30.355Z,98308.55
2017-11-17T04:59:02.015Z,98315.75
2017-11-17T04:59:33.647Z,98308.52
2017-11-17T05:00:05.340Z,98316.94
2017-11-17T05:00:36.983Z,98313.52
2017-11-17T05:01:08.612Z,98314.80
2017-11-17T05:01:40.234Z,98316.45
2017-11-17T05:02:11.907Z,98311.67
2017-11-17T05:02:43.540Z,98314.48
2017-11-17T05:03:15.163Z,98308.10
2017-11-17T05:03:46.792Z,98305.23
2017-11-17T05:04:18.539Z,98312.98
2017-11-17T05:04:50.374Z,98312.66
2017-11-17T05:05:22.020Z,98313.53
2017-11-17T05:05:53.668Z,98311.45
2017-11-17T05:06:25.298Z,98312.73
2017-11-17T05:06:56.949Z,98313.15
2017-11-17T05:07:28.625Z,98315.27
2017-11-17T05:08:00.256Z,98317.83
2017-11-17T05:08:31.884Z,98312.67
2017-11-17T05:09:03.511Z,98316.13
2017-11-17T05:09:35.150Z,98312.71
2017-11-17T05:10:06.793Z,98308.84
2017-11-17T05:10:38.432Z,98302.12
2017-11-17T05:11:10.064Z,98306.72
2017-11-17T05:11:41.716Z,98310.54
2017-11-17T05:12:13.360Z,98310.53
2017-11-17T05:12:45.031Z,98306.23
2017-11-17T05:13:16.656Z,98309.16
2017-11-17T05:13:48.594Z,98311.30
2017-11-17T05:14:20.231Z,98307.94
2017-11-17T05:14:51.874Z,98312.62
2017-11-17T05:15:23.514Z,98308.41
2017-11-17T05:15:55.161Z,98316.45
2017-11-17T05:16:26.803Z,98313.91
2017-11-17T05:16:58.445Z,98315.18
2017-11-17T05:17:30.086Z,98313.94
2017-11-17T05:18:01.756Z,98305.00
2017-11-17T05:18:33.384Z,98314.33
2017-11-17T05:19:05.245Z,98318.20
2017-11-17T05:19:36.871Z,98316.88
2017-11-17T05:20:08.604Z,98317.69
2017-11-17T05:20:40.490Z,98321.89
2017-11-17T05:21:12.119Z,98314.22
2017-11-17T05:21:43.744Z,98314.64
2017-11-17T05:22:15.477Z,98317.20
2017-11-17T05:22:47.147Z,98317.20
2017-11-17T05:23:18.815Z,98312.52
2017-11-17T05:23:50.441Z,98315.92
2017-11-17T05:24:22.067Z,98320.61
2017-11-17T05:24:53.691Z,98319.33
2017-11-17T05:25:25.353Z,98319.33
2017-11-17T05:25:56.971Z,98320.14
2017-11-17T05:26:28.599Z,98323.59
2017-11-17T05:27:00.253Z,98326.16
2017-11-17T05:27:31.894Z,98320.56
2017-11-17T05:28:03.537Z,98325.30
2017-11-17T05:28:35.178Z,98319.28
2017-11-17T05:29:06.820Z,98321.03
2017-11-17T05:29:38.468Z,98322.36
2017-11-17T05:30:10.107Z,98318.54
2017-11-17T05:30:41.749Z,98321.09
2017-11-17T05:31:13.388Z,98322.36
2017-11-17T05:31:45.033Z,98324.48
2017-11-17T05:32:16.673Z,98320.13
2017-11-17T05:32:48.313Z,98324.39
2017-11-17T05:33:19.956Z,98325.23
2017-11-17T05:33:51.628Z,98323.07
2017-11-17T05:34:23.255Z,98325.23
2017-11-17T05:34:54.887Z,98324.34
2017-11-17T05:35:26.522Z,98323.54
2017-11-17T05:35:58.168Z,98326.52
2017-11-17T05:36:29.807Z,98325.71
2017-11-17T05:37:01.449Z,98331.64
2017-11-17T05:37:33.092Z,98330.82
2017-11-17T05:38:04.740Z,98328.70
2017-11-17T05:38:36.377Z,98328.27
2017-11-17T05:39:08.045Z,98331.68
2017-11-17T05:39:39.679Z,98326.58
2017-11-17T05:40:11.610Z,98330.02
2017-11-17T05:40:43.248Z,98328.33
2017-11-17T05:41:14.894Z,98324.08
2017-11-17T05:41:46.538Z,98327.52
2017-11-17T05:42:18.179Z,98328.38
2017-11-17T05:42:49.809Z,98328.86
2017-11-17T05:43:21.458Z,98330.55
2017-11-17T05:43:53.100Z,98322.47
2017-11-17T05:44:24.767Z,98325.50
2017-11-17T05:44:56.392Z,98328.01
2017-11-17T05:45:28.028Z,98328.86
2017-11-17T05:45:59.671Z,98324.23
2017-11-17T05:46:31.310Z,98325.06
2017-11-17T05:47:02.940Z,98328.53
2017-11-17T05:47:34.571Z,98329.00
2017-11-17T05:48:06.241Z,98327.67
2017-11-17T05:48:37.881Z,98324.27
2017-11-17T05:49:09.519Z,98328.95
2017-11-17T05:49:41.200Z,98328.91
2017-11-17T05:50:12.824Z,98328.95
2017-11-17T05:50:44.757Z,98322.61
2017-11-17T05:51:16.394Z,98333.64
2017-11-17T05:51:48.037Z,98334.06
2017-11-17T05:52:19.678Z,98328.16
2017-11-17T05:52:51.320Z,98325.16
2017-11-17T05:53:22.969Z,98328.58
2017-11-17T05:53:54.610Z,98328.58
2017-11-17T05:54:26.555Z,98332.84
2017-11-17T05:54:58.223Z,98329.86
2017-11-17T05:55:29.848Z,98332.89
2017-11-17T05:56:01.791Z,98331.18
2017-11-17T05:56:33.440Z,98324.78
2017-11-17T05:57:05.309Z,98332.84
2017-11-17T05:57:36.939Z,98329.02
2017-11-17T05:58:08.564Z,98330.33
2017-11-17T05:58:40.305Z,98326.49
2017-11-17T05:59:11.944Z,98332.45
2017-11-17T05:59:43.587Z,98327.78
2017-11-17T06:00:15.260Z,98327.35
2017-11-17T06:00:46.883Z,98323.95
2017-11-17T06:01:18.514Z,98327.36
2017-11-17T06:01:50.156Z,98329.05
2017-11-17T06:02:21.806Z,98327.30
2017-11-17T06:02:53.440Z,98327.34
2017-11-17T06:03:25.078Z,98329.48
2017-11-17T06:03:56.721Z,98326.91
2017-11-17T06:04:28.366Z,98323.52
2017-11-17T06:05:00.006Z,98324.37
2017-11-17T06:05:31.682Z,98324.79
2017-11-17T06:06:03.303Z,98326.06
2017-11-17T06:06:34.936Z,98328.62
2017-11-17T06:07:06.572Z,98325.65
2017-11-17T06:07:38.215Z,98323.99
2017-11-17T06:08:09.861Z,98325.22
2017-11-17T06:08:41.808Z,98329.02
2017-11-17T06:09:13.449Z,98329.91
2017-11-17T06:09:45.090Z,98330.28
2017-11-17T06:10:16.734Z,98330.76
2017-11-17T06:10:48.399Z,98326.50
2017-11-17T06:11:20.023Z,98325.27
2017-11-17T06:11:51.670Z,98324.80